createdAt,value
2023-03-05T00:01:42.338Z,98892.13
2023-03-05T00:04:15.297Z,98902.63
2023-03-05T00:06:44.108Z,98901.13
2023-03-05T00:09:12.383Z,98883.34
2023-03-05T00:11:41.029Z,98896.88
2023-03-05T00:14:10.561Z,98894.59
2023-03-05T00:16:38.820Z,98835.13
2023-03-05T00:19:07.964Z,98816.53
2023-03-05T00:21:39.560Z,98827.28
2023-03-05T00:24:18.531Z,98883.41
2023-03-05T00:26:47.533Z,98881.19
2023-03-05T00:29:18.915Z,98836.66
2023-03-05T00:31:47.387Z,98879.59
2023-03-05T00:34:18.893Z,98882.41
2023-03-05T00:36:50.714Z,98884.94
2023-03-05T00:39:21.262Z,98881.44
2023-03-05T00:41:49.766Z,98838.66
2023-03-05T00:44:18.483Z,98792.38
2023-03-05T00:46:46.872Z,98879.06
2023-03-05T00:49:14.973Z,98876.84
2023-03-05T00:51:43.761Z,98871.94
2023-03-05T00:54:12.319Z,98869.19
2023-03-05T00:56:42.856Z,98869.41
2023-03-05T00:59:11.005Z,98850.22
2023-03-05T01:01:40.738Z,98849.38
2023-03-05T01:04:09.816Z,98873.16
2023-03-05T01:06:43.068Z,98859.03
2023-03-05T01:09:11.347Z,98864.81
2023-03-05T01:11:41.123Z,98871.94
2023-03-05T01:14:10.808Z,98865.69
2023-03-05T01:16:39.125Z,98805.00
2023-03-05T01:19:07.196Z,98865.84
2023-03-05T01:21:36.804Z,98855.72
2023-03-05T01:24:06.985Z,98862.38
2023-03-05T01:26:35.804Z,98856.34
2023-03-05T01:29:04.605Z,98792.47
2023-03-05T01:31:33.127Z,98868.13
2023-03-05T01:34:02.027Z,98872.53
2023-03-05T01:36:30.525Z,98815.78
2023-03-05T01:38:58.697Z,98804.38
2023-03-05T01:41:27.156Z,98870.03
2023-03-05T01:43:55.628Z,98873.75
2023-03-05T01:46:37.228Z,98874.69
2023-03-05T01:49:40.308Z,98859.94
2023-03-05T01:52:20.414Z,98796.78
2023-03-05T01:55:10.143Z,98843.41
2023-03-05T01:57:52.279Z,98844.25
2023-03-05T02:00:31.040Z,98854.19
2023-03-05T02:03:05.053Z,98845.66
2023-03-05T02:05:38.255Z,98785.97
2023-03-05T02:08:10.536Z,98844.72
2023-03-05T02:10:51.826Z,98845.84
2023-03-05T02:13:34.063Z,98841.03
2023-03-05T02:16:03.534Z,98847.75
2023-03-05T02:18:31.799Z,98785.47
2023-03-05T02:21:04.558Z,98837.34
2023-03-05T02:23:38.621Z,98835.16
2023-03-05T02:26:11.064Z,98832.94
2023-03-05T02:28:41.292Z,98832.94
2023-03-05T02:31:31.398Z,98830.84
2023-03-05T02:33:59.553Z,98830.94
2023-03-05T02:36:27.660Z,98835.34
2023-03-05T02:38:57.336Z,98835.53
2023-03-05T02:41:26.067Z,98789.47
2023-03-05T02:43:57.114Z,98837.34
2023-03-05T02:46:25.488Z,98834.22
2023-03-05T02:48:53.675Z,98836.97
2023-03-05T02:51:22.031Z,98838.56
2023-03-05T02:53:50.876Z,98832.47
2023-03-05T02:56:19.772Z,98762.78
2023-03-05T02:58:47.830Z,98827.34
2023-03-05T03:01:16.007Z,98826.66
2023-03-05T03:03:44.104Z,98824.16
2023-03-05T03:06:12.203Z,98820.13
2023-03-05T03:08:40.697Z,98814.53
2023-03-05T03:11:12.693Z,98809.44
2023-03-05T03:13:41.747Z,98816.25
2023-03-05T03:16:14.611Z,98820.06
2023-03-05T03:18:44.119Z,98811.44
2023-03-05T03:21:23.469Z,98808.53
2023-03-05T03:23:51.699Z,98792.09
2023-03-05T03:26:20.119Z,98804.50
2023-03-05T03:28:48.415Z,98785.75
2023-03-05T03:31:16.941Z,98788.44
2023-03-05T03:33:45.623Z,98774.88
2023-03-05T03:36:14.380Z,98785.84
2023-03-05T03:38:42.983Z,98798.75
2023-03-05T03:41:11.178Z,98750.66
2023-03-05T03:43:39.506Z,98728.72
2023-03-05T03:46:11.013Z,98779.38
2023-03-05T03:48:39.165Z,98730.53
2023-03-05T03:51:08.596Z,98785.00
2023-03-05T03:53:37.249Z,98783.59
2023-03-05T03:56:05.803Z,98775.72
2023-03-05T03:58:34.076Z,98775.91
2023-03-05T04:01:02.257Z,98772.38
2023-03-05T04:03:30.393Z,98777.19
2023-03-05T04:05:58.934Z,98766.25
2023-03-05T04:08:27.220Z,98753.41
2023-03-05T04:10:55.804Z,98688.34
2023-03-05T04:13:23.966Z,98662.09
2023-03-05T04:15:52.044Z,98701.50
2023-03-05T04:18:20.501Z,98734.13
2023-03-05T04:20:49.087Z,98688.69
2023-03-05T04:23:17.734Z,98745.75
2023-03-05T04:25:45.867Z,98739.78
2023-03-05T04:28:14.042Z,98745.47
2023-03-05T04:30:42.071Z,98681.84
2023-03-05T04:33:10.108Z,98739.31
2023-03-05T04:35:38.553Z,98674.38
2023-03-05T04:38:07.027Z,98666.81
2023-03-05T04:40:35.348Z,98734.88
2023-03-05T04:43:04.494Z,98719.75
2023-03-05T04:45:32.919Z,98719.00
2023-03-05T04:48:01.713Z,98714.97
2023-03-05T04:50:29.920Z,98733.16
2023-03-05T04:52:58.213Z,98680.47
2023-03-05T04:55:26.944Z,98727.47
2023-03-05T04:57:55.175Z,98727.09
2023-03-05T05:00:23.894Z,98728.25
2023-03-05T05:02:52.981Z,98733.00
2023-03-05T05:05:25.926Z,98725.41
2023-03-05T05:07:59.108Z,98726.06
2023-03-05T05:10:28.197Z,98717.41
2023-03-05T05:12:56.332Z,98672.75
2023-03-05T05:15:24.805Z,98721.28
2023-03-05T05:17:53.046Z,98719.16
2023-03-05T05:20:22.248Z,98724.78
2023-03-05T05:22:50.244Z,98667.66
2023-03-05T05:25:18.578Z,98727.56
2023-03-05T05:27:46.619Z,98682.34
2023-03-05T05:30:14.722Z,98739.94
2023-03-05T05:32:42.954Z,98730.53
2023-03-05T05:35:11.341Z,98726.16
2023-03-05T05:37:39.751Z,98745.19
2023-03-05T05:40:09.807Z,98717.22
2023-03-05T05:42:38.432Z,98737.59
2023-03-05T05:45:08.143Z,98730.00
2023-03-05T05:47:36.917Z,98687.00
2023-03-05T05:50:06.496Z,98686.66
2023-03-05T05:52:35.558Z,98727.34
2023-03-05T05:55:04.923Z,98731.63
2023-03-05T05:57:34.755Z,98703.31
2023-03-05T06:00:07.966Z,98734.31
2023-03-05T06:02:41.117Z,98708.94
2023-03-05T06:05:12.594Z,98735.97
2023-03-05T06:07:40.652Z,98664.47
2023-03-05T06:10:10.218Z,98709.72
2023-03-05T06:12:38.936Z,98719.28
2023-03-05T06:15:08.498Z,98694.97
2023-03-05T06:17:37.011Z,98667.56
2023-03-05T06:20:07.428Z,98705.81
2023-03-05T06:22:40.104Z,98699.75
2023-03-05T06:25:09.822Z,98703.59
2023-03-05T06:27:39.036Z,98704.16
2023-03-05T06:30:08.777Z,98710.06
2023-03-05T06:32:37.487Z,98706.81
2023-03-05T06:35:07.063Z,98703.75
2023-03-05T06:37:35.266Z,98708.69
2023-03-05T06:40:04.505Z,98701.97
2023-03-05T06:42:35.134Z,98702.16
2023-03-05T06:45:04.128Z,98691.97
2023-03-05T06:47:32.827Z,98688.88
2023-03-05T06:50:01.913Z,98644.63
2023-03-05T06:52:30.183Z,98703.38
2023-03-05T06:54:58.451Z,98662.25
2023-03-05T06:57:26.997Z,98685.88
2023-03-05T06:59:55.238Z,98647.94
2023-03-05T07:02:23.773Z,98699.28
2023-03-05T07:04:51.849Z,98690.38
2023-03-05T07:07:20.184Z,98682.69
2023-03-05T07:09:50.629Z,98672.75
2023-03-05T07:12:18.854Z,98678.78
2023-03-05T07:14:47.484Z,98693.34
2023-03-05T07:17:16.056Z,98681.69
2023-03-05T07:19:44.687Z,98682.06
2023-03-05T07:22:13.406Z,98670.66
2023-03-05T07:24:42.065Z,98659.38
2023-03-05T07:27:10.766Z,98651.72
2023-03-05T07:29:39.642Z,98656.34
2023-03-05T07:32:09.053Z,98654.53
2023-03-05T07:34:39.371Z,98648.25
2023-03-05T07:37:08.298Z,98663.88
2023-03-05T07:39:36.848Z,98653.94
2023-03-05T07:42:05.012Z,98657.16
2023-03-05T07:44:50.897Z,98652.94
2023-03-05T07:47:19.500Z,98645.41
2023-03-05T07:49:47.694Z,98655.91
2023-03-05T07:52:16.390Z,98645.38
2023-03-05T07:54:44.517Z,98645.81
2023-03-05T07:57:14.137Z,98640.34
2023-03-05T07:59:43.726Z,98621.91
2023-03-05T08:02:14.765Z,98607.69
2023-03-05T08:04:43.366Z,98632.81
2023-03-05T08:07:15.187Z,98632.94
2023-03-05T08:09:43.599Z,98623.03
2023-03-05T08:12:11.788Z,98624.06
2023-03-05T08:14:39.967Z,98621.88
2023-03-05T08:17:08.895Z,98587.50
2023-03-05T08:19:37.399Z,98617.44
2023-03-05T08:22:07.570Z,98609.81
2023-03-05T08:24:36.594Z,98604.13
2023-03-05T08:27:04.882Z,98557.28
2023-03-05T08:29:33.264Z,98601.06
2023-03-05T08:32:01.943Z,98599.78
2023-03-05T08:34:30.168Z,98594.22
2023-03-05T08:36:58.787Z,98592.53
2023-03-05T08:39:27.354Z,98574.97
2023-03-05T08:41:55.655Z,98522.09
2023-03-05T08:44:23.835Z,98577.59
2023-03-05T08:46:52.293Z,98588.00
2023-03-05T08:49:20.335Z,98587.25
2023-03-05T08:51:49.585Z,98592.41
2023-03-05T08:54:18.446Z,98581.28
2023-03-05T08:56:46.467Z,98567.56
2023-03-05T08:59:15.189Z,98556.69
2023-03-05T09:01:43.885Z,98535.72
2023-03-05T09:04:12.075Z,98576.50
2023-03-05T09:06:40.798Z,98574.28
2023-03-05T09:09:09.772Z,98568.75
2023-03-05T09:11:38.369Z,98563.50
2023-03-05T09:14:08.468Z,98566.84
2023-03-05T09:16:39.231Z,98506.34
2023-03-05T09:19:13.018Z,98508.66
2023-03-05T09:21:41.973Z,98490.09
2023-03-05T09:24:10.044Z,98503.00
2023-03-05T09:26:39.111Z,98547.56
2023-03-05T09:29:08.793Z,98485.31
2023-03-05T09:31:42.530Z,98546.16
2023-03-05T09:34:12.059Z,98543.66
2023-03-05T09:36:40.592Z,98537.41
2023-03-05T09:39:09.289Z,98536.31
2023-03-05T09:42:03.614Z,98526.91
2023-03-05T09:45:07.376Z,98519.56
2023-03-05T09:48:07.077Z,98541.22
2023-03-05T09:51:58.604Z,98527.66
2023-03-05T09:54:57.420Z,98528.06
2023-03-05T09:57:43.499Z,98533.88
2023-03-05T10:00:46.016Z,98514.78
2023-03-05T10:03:30.409Z,98514.31
2023-03-05T10:06:17.683Z,98515.09
2023-03-05T10:31:18.306Z,98524.34
2023-03-05T10:34:21.609Z,98523.41
2023-03-05T10:37:45.329Z,98440.50
2023-03-05T10:40:19.731Z,98525.06
2023-03-05T10:43:15.808Z,98480.22
2023-03-05T10:45:48.007Z,98526.63
2023-03-05T10:49:19.144Z,98480.28
2023-03-05T10:52:18.480Z,98522.44
2023-03-05T10:54:47.832Z,98527.81
2023-03-05T10:57:37.620Z,98444.25
2023-03-05T11:00:25.803Z,98519.31
2023-03-05T11:03:08.161Z,98496.75
2023-03-05T11:05:52.761Z,98516.78
2023-03-05T11:08:34.799Z,98511.31
2023-03-05T11:11:10.351Z,98511.38
2023-03-05T11:14:04.064Z,98505.94
2023-03-05T11:16:46.704Z,98493.50
2023-03-05T11:19:39.799Z,98473.50
2023-03-05T11:22:23.355Z,98494.38
2023-03-05T11:25:21.537Z,98449.97
2023-03-05T11:27:55.191Z,98488.41
2023-03-05T11:30:34.899Z,98489.97
2023-03-05T11:33:23.292Z,98495.56
2023-03-05T11:36:09.389Z,98487.50
2023-03-05T11:39:16.927Z,98487.47
2023-03-05T11:42:25.570Z,98481.16
2023-03-05T11:44:56.312Z,98471.75
2023-03-05T11:47:44.951Z,98419.28
2023-03-05T11:50:20.814Z,98461.25
2023-03-05T11:53:09.486Z,98426.16
2023-03-05T11:55:59.081Z,98457.66
2023-03-05T11:58:40.235Z,98409.50
2023-03-05T12:01:25.091Z,98448.97
2023-03-05T12:03:53.956Z,98384.47
2023-03-05T12:06:44.796Z,98440.13
2023-03-05T12:09:43.547Z,98442.66
2023-03-05T12:12:38.136Z,98390.78
2023-03-05T12:15:19.161Z,98429.75
2023-03-05T12:18:03.087Z,98424.16
2023-03-05T12:20:56.628Z,98394.38
2023-03-05T12:23:28.657Z,98400.78
2023-03-05T12:26:00.408Z,98426.56
2023-03-05T12:28:35.826Z,98403.53
2023-03-05T12:31:35.613Z,98422.41
2023-03-05T12:34:41.070Z,98425.63
2023-03-05T12:37:34.231Z,98432.53
2023-03-05T12:40:35.135Z,98422.72
2023-03-05T12:43:05.661Z,98419.88
2023-03-05T12:45:40.033Z,98426.91
2023-03-05T12:48:13.685Z,98436.91
2023-03-05T12:50:45.310Z,98438.16
2023-03-05T12:53:21.272Z,98416.53
2023-03-05T12:56:16.943Z,98387.84
2023-03-05T12:58:55.745Z,98446.75
2023-03-05T13:01:44.583Z,98414.22
2023-03-05T13:04:21.345Z,98450.00
2023-03-05T13:07:05.720Z,98439.69
2023-03-05T13:09:36.589Z,98429.13
2023-03-05T13:12:13.023Z,98419.03
2023-03-05T13:14:46.962Z,98413.53
2023-03-05T13:17:32.568Z,98384.81
2023-03-05T13:20:06.940Z,98442.72
2023-03-05T13:22:35.352Z,98434.31
2023-03-05T13:25:20.707Z,98425.63
2023-03-05T13:27:50.020Z,98435.53
2023-03-05T13:30:29.702Z,98424.66
2023-03-05T13:33:03.491Z,98373.59
2023-03-05T13:35:33.460Z,98422.69
2023-03-05T13:38:02.472Z,98415.81
2023-03-05T13:40:33.162Z,98409.44
2023-03-05T13:43:19.991Z,98369.78
2023-03-05T13:45:59.012Z,98417.09
2023-03-05T13:48:29.462Z,98268.47
2023-03-05T13:50:58.824Z,98388.34
2023-03-05T13:53:29.501Z,98362.16
2023-03-05T13:56:05.516Z,98397.75
2023-03-05T13:58:57.204Z,98387.28
2023-03-05T14:01:33.108Z,98390.97
2023-03-05T14:04:15.631Z,98388.53
2023-03-05T14:06:59.840Z,98383.75
2023-03-05T14:09:40.558Z,98382.28
2023-03-05T14:12:44.529Z,98365.75
2023-03-05T14:15:24.579Z,98375.81
2023-03-05T14:18:08.804Z,98366.31
2023-03-05T14:20:38.123Z,98317.63
2023-03-05T14:23:40.125Z,98360.00
2023-03-05T14:26:34.456Z,98341.53
2023-03-05T14:29:14.241Z,98346.09
2023-03-05T14:32:20.373Z,98345.69
2023-03-05T14:34:57.487Z,98341.72
2023-03-05T14:37:38.748Z,98325.03
2023-03-05T14:40:33.359Z,98318.34
2023-03-05T14:43:07.986Z,98283.16
2023-03-05T14:45:41.481Z,98313.66
2023-03-05T14:48:14.285Z,98310.81
2023-03-05T14:50:53.680Z,98280.44
2023-03-05T14:53:28.608Z,98316.75
2023-03-05T14:55:57.695Z,98273.66
2023-03-05T14:58:36.128Z,98304.66
2023-03-05T15:01:05.206Z,98289.63
2023-03-05T15:03:33.893Z,98295.75
2023-03-05T15:06:02.989Z,98296.00
2023-03-05T15:08:32.892Z,98244.31
2023-03-05T15:11:02.030Z,98293.59
2023-03-05T15:13:32.148Z,98296.91
2023-03-05T15:16:00.683Z,98247.34
2023-03-05T15:18:29.179Z,98241.88
2023-03-05T15:20:57.991Z,98252.34
2023-03-05T15:23:30.089Z,98159.06
2023-03-05T15:26:00.868Z,98285.94
2023-03-05T15:28:30.043Z,98276.97
2023-03-05T15:31:00.268Z,98283.22
2023-03-05T15:33:30.799Z,98280.28
2023-03-05T15:35:59.714Z,98256.59
2023-03-05T15:38:28.176Z,98240.91
2023-03-05T15:40:56.712Z,98284.97
2023-03-05T15:43:26.210Z,98160.38
2023-03-05T15:45:54.867Z,98277.13
2023-03-05T15:48:23.464Z,98283.81
2023-03-05T15:50:51.767Z,98280.25
2023-03-05T15:53:21.864Z,98233.28
2023-03-05T15:55:50.565Z,98273.34
2023-03-05T15:58:19.228Z,98228.91
2023-03-05T16:00:49.270Z,98270.41
2023-03-05T16:03:17.967Z,98279.81
2023-03-05T16:05:46.693Z,98262.56
2023-03-05T16:08:15.961Z,98220.72
2023-03-05T16:10:47.379Z,98271.31
2023-03-05T16:13:21.290Z,98254.06
2023-03-05T16:15:54.314Z,98213.66
2023-03-05T16:18:24.249Z,98259.56
2023-03-05T16:20:55.889Z,98262.78
2023-03-05T16:23:28.160Z,98250.59
2023-03-05T16:25:59.578Z,98250.06
2023-03-05T16:28:28.360Z,98234.78
2023-03-05T16:30:58.712Z,98248.00
2023-03-05T16:33:27.033Z,98107.44
2023-03-05T16:36:21.339Z,98243.63
2023-03-05T16:38:52.546Z,98257.28
2023-03-05T16:41:25.679Z,98242.84
2023-03-05T16:43:58.893Z,98271.72
2023-03-05T16:46:31.311Z,98282.59
2023-03-05T16:49:01.235Z,98281.66
2023-03-05T16:51:30.122Z,98260.34
2023-03-05T16:53:58.819Z,98248.22
2023-03-05T16:56:28.397Z,98284.56
2023-03-05T16:58:57.223Z,98296.59
2023-03-05T17:01:26.280Z,98260.91
2023-03-05T17:03:58.049Z,98294.50
2023-03-05T17:06:30.879Z,98308.94
2023-03-05T17:08:59.878Z,98315.19
2023-03-05T17:11:28.875Z,98315.75
2023-03-05T17:13:58.153Z,98277.72
2023-03-05T17:16:27.616Z,98307.38
2023-03-05T17:18:56.500Z,98188.81
2023-03-05T17:21:24.966Z,98340.09
2023-03-05T17:23:53.557Z,98335.06
2023-03-05T17:26:22.472Z,98335.06
2023-03-05T17:28:53.529Z,98320.34
2023-03-05T17:31:22.811Z,98336.94
2023-03-05T17:33:51.241Z,98337.16
2023-03-05T17:36:21.378Z,98341.56
2023-03-05T17:38:51.148Z,98349.50
2023-03-05T17:41:21.325Z,98314.41
2023-03-05T17:43:50.475Z,98328.81
2023-03-05T17:46:18.901Z,98323.59
2023-03-05T17:48:47.307Z,98283.81
2023-03-05T17:51:17.072Z,98348.56
2023-03-05T17:53:46.113Z,98351.06
2023-03-05T17:56:22.296Z,98336.34
2023-03-05T17:58:51.163Z,98353.06
2023-03-05T18:01:29.091Z,98298.13
2023-03-05T18:03:58.698Z,98348.66
2023-03-05T18:06:28.041Z,98348.22
2023-03-05T18:08:56.464Z,98352.84
2023-03-05T18:11:25.065Z,98354.19
2023-03-05T18:13:53.497Z,98356.19
2023-03-05T18:16:24.359Z,98336.34
2023-03-05T18:18:53.714Z,98350.31
2023-03-05T18:21:25.141Z,98331.22
2023-03-05T18:23:54.416Z,98359.75
2023-03-05T18:26:22.912Z,98366.63
2023-03-05T18:28:51.430Z,98366.50
2023-03-05T18:31:20.146Z,98319.63
2023-03-05T18:33:50.963Z,98364.00
2023-03-05T18:36:19.671Z,98364.03
2023-03-05T18:38:48.951Z,98374.56
2023-03-05T18:41:25.242Z,98368.50
2023-03-05T18:43:56.139Z,98375.06
2023-03-05T18:46:25.275Z,98377.38
2023-03-05T18:48:54.134Z,98380.28
2023-03-05T18:51:23.615Z,98323.56
2023-03-05T18:53:56.228Z,98358.22
2023-03-05T18:56:26.073Z,98378.19
2023-03-05T18:58:55.614Z,98354.88
2023-03-05T19:01:26.253Z,98359.91
2023-03-05T19:03:55.640Z,98373.06
2023-03-05T19:06:24.301Z,98225.53
2023-03-05T19:09:44.835Z,98378.81
2023-03-05T19:12:15.868Z,98348.84
2023-03-05T19:14:45.032Z,98385.19
2023-03-05T19:17:13.820Z,98326.66
2023-03-05T19:19:43.269Z,98381.53
2023-03-05T19:22:12.720Z,98375.47
2023-03-05T19:24:41.586Z,98252.03
2023-03-05T19:27:15.872Z,98375.47
2023-03-05T19:29:44.957Z,98368.44
2023-03-05T19:32:17.952Z,98375.56
2023-03-05T19:34:46.903Z,98324.38
2023-03-05T19:37:16.952Z,98340.44
2023-03-05T19:39:45.429Z,98373.13
2023-03-05T19:42:14.691Z,98339.69
2023-03-05T19:44:43.303Z,98379.94
2023-03-05T19:47:12.282Z,98386.19
2023-03-05T19:49:41.554Z,98392.16
2023-03-05T19:52:11.611Z,98392.34
2023-03-05T19:54:41.514Z,98363.38
2023-03-05T19:57:10.026Z,98400.91
2023-03-05T19:59:38.764Z,98318.88
2023-03-05T20:02:08.688Z,98405.41
2023-03-05T20:04:37.378Z,98400.19
2023-03-05T20:07:07.683Z,98403.75
2023-03-05T20:09:36.494Z,98396.63
2023-03-05T20:12:07.054Z,98382.94
2023-03-05T20:14:35.609Z,98407.69
2023-03-05T20:17:04.140Z,98381.13
2023-03-05T20:19:33.273Z,98412.91
2023-03-05T20:22:02.239Z,98397.03
2023-03-05T20:24:31.149Z,98406.34
2023-03-05T20:27:01.136Z,98399.97
2023-03-05T20:29:29.692Z,98399.66
2023-03-05T20:31:58.872Z,98400.28
2023-03-05T20:34:27.925Z,98402.38
2023-03-05T20:36:58.659Z,98372.75
2023-03-05T20:39:27.375Z,98401.38
2023-03-05T20:41:56.869Z,98346.81
2023-03-05T20:44:26.844Z,98400.28
2023-03-05T20:47:29.193Z,98398.34
2023-03-05T20:49:58.334Z,98395.41
2023-03-05T20:52:27.966Z,98403.81
2023-03-05T20:54:56.991Z,98394.53
2023-03-05T20:57:26.284Z,98390.19
2023-03-05T20:59:55.173Z,98343.63
2023-03-05T21:02:23.895Z,98401.38
2023-03-05T21:04:53.207Z,98397.63
2023-03-05T21:07:22.407Z,98360.47
2023-03-05T21:09:51.334Z,98353.75
2023-03-05T21:12:20.028Z,98323.47
2023-03-05T21:14:48.740Z,98402.06
2023-03-05T21:17:18.533Z,98400.25
2023-03-05T21:19:47.189Z,98349.69
2023-03-05T21:22:15.720Z,98405.75
2023-03-05T21:25:21.343Z,98395.22
2023-03-05T21:28:11.837Z,98407.84
2023-03-05T21:30:45.399Z,98412.66
2023-03-05T21:33:18.549Z,98408.78
2023-03-05T21:35:47.527Z,98416.22
2023-03-05T21:38:16.274Z,98273.41
2023-03-05T21:40:48.982Z,98357.75
2023-03-05T21:43:21.255Z,98410.66
2023-03-05T21:45:53.709Z,98389.72
2023-03-05T21:48:23.220Z,98408.56
2023-03-05T21:50:53.032Z,98407.81
2023-03-05T21:53:22.554Z,98413.69
2023-03-05T21:56:26.214Z,98409.16
2023-03-05T21:58:54.960Z,98417.97
2023-03-05T22:01:23.556Z,98373.94
2023-03-05T22:03:52.122Z,98409.41
2023-03-05T22:06:23.069Z,98399.00
2023-03-05T22:08:52.554Z,98409.41
2023-03-05T22:11:21.263Z,98398.94
2023-03-05T22:13:49.979Z,98367.75
2023-03-05T22:16:25.284Z,98360.81
2023-03-05T22:18:54.469Z,98381.59
2023-03-05T22:21:27.521Z,98409.72
2023-03-05T22:24:00.334Z,98412.41
2023-03-05T22:26:37.845Z,98418.72
2023-03-05T22:29:10.178Z,98410.09
2023-03-05T22:31:41.425Z,98356.69
2023-03-05T22:34:10.628Z,98412.50
2023-03-05T22:36:39.493Z,98414.75
2023-03-05T22:39:08.302Z,98420.63
2023-03-05T22:41:37.986Z,98413.63
2023-03-05T22:44:07.176Z,98416.38
2023-03-05T22:46:36.074Z,98378.19
2023-03-05T22:49:04.654Z,98416.00
2023-03-05T22:51:33.104Z,98392.34
2023-03-05T22:54:01.948Z,98437.56
2023-03-05T22:56:30.717Z,98430.78
2023-03-05T22:58:59.356Z,98374.31
2023-03-05T23:01:28.398Z,98432.97
2023-03-05T23:04:50.288Z,98380.63
2023-03-05T23:07:27.332Z,98384.75
2023-03-05T23:10:03.818Z,98389.88
2023-03-05T23:12:36.166Z,98393.41
2023-03-05T23:15:09.851Z,98429.84
2023-03-05T23:17:38.457Z,98429.25
2023-03-05T23:20:11.184Z,98432.16
2023-03-05T23:22:41.090Z,98432.66
2023-03-05T23:25:10.761Z,98426.22
2023-03-05T23:27:39.485Z,98431.75
2023-03-05T23:30:19.712Z,98373.13
2023-03-05T23:32:58.700Z,98424.56
2023-03-05T23:35:37.640Z,98373.72
2023-03-05T23:38:13.125Z,98423.41
2023-03-05T23:40:48.157Z,98438.34
2023-03-05T23:43:18.809Z,98395.53
2023-03-05T23:45:49.490Z,98384.25
2023-03-05T23:48:18.511Z,98384.78
2023-03-05T23:50:48.533Z,98402.44
2023-03-05T23:53:31.345Z,98400.38
2023-03-05T23:55:59.997Z,98442.91
2023-03-05T23:58:29.067Z,98426.41
